createdAt,value
2023-01-17T00:01:30.831Z,92038.97
2023-01-17T00:03:57.670Z,92033.28
2023-01-17T00:06:27.795Z,92037.66
2023-01-17T00:08:57.293Z,92040.03
2023-01-17T00:11:24.332Z,92043.06
2023-01-17T00:13:51.403Z,92045.91
2023-01-17T00:16:18.180Z,92038.84
2023-01-17T00:18:48.040Z,92038.03
2023-01-17T00:21:15.062Z,92035.94
2023-01-17T00:23:41.813Z,92034.16
2023-01-17T00:26:16.798Z,92030.47
2023-01-17T00:28:44.001Z,92030.75
2023-01-17T00:31:13.278Z,92016.78
2023-01-17T00:33:40.442Z,92012.41
2023-01-17T00:36:08.600Z,92010.47
2023-01-17T00:38:36.835Z,92008.25
2023-01-17T00:41:07.759Z,91998.00
2023-01-17T00:43:37.468Z,91999.91
2023-01-17T00:46:04.641Z,91990.28
2023-01-17T00:48:31.403Z,91985.16
2023-01-17T00:50:58.221Z,91968.28
2023-01-17T00:53:24.974Z,91977.47
2023-01-17T00:55:52.405Z,91960.31
2023-01-17T00:58:21.872Z,91963.28
2023-01-17T01:00:49.119Z,91948.34
2023-01-17T01:03:15.988Z,91944.91
2023-01-17T01:05:45.500Z,91943.47
2023-01-17T01:08:26.449Z,91936.50
2023-01-17T01:10:53.555Z,91935.06
2023-01-17T01:13:23.827Z,91934.25
2023-01-17T01:15:50.995Z,91932.50
2023-01-17T01:18:19.056Z,91934.31
2023-01-17T01:20:46.041Z,91924.38
2023-01-17T01:23:13.792Z,91917.88
2023-01-17T01:25:40.508Z,91922.75
2023-01-17T01:28:12.565Z,91919.53
2023-01-17T01:30:39.304Z,91914.41
2023-01-17T01:33:13.064Z,91908.97
2023-01-17T01:35:39.913Z,91903.72
2023-01-17T01:38:06.909Z,91906.38
2023-01-17T01:40:33.919Z,91899.13
2023-01-17T01:43:00.932Z,91907.78
2023-01-17T01:45:30.338Z,91900.31
2023-01-17T01:48:45.261Z,91899.22
2023-01-17T01:51:15.536Z,91889.94
2023-01-17T01:53:43.387Z,91893.50
2023-01-17T01:56:11.518Z,91896.78
2023-01-17T01:58:38.657Z,91903.97
2023-01-17T02:01:06.013Z,91903.63
2023-01-17T02:03:32.846Z,91893.56
2023-01-17T02:06:22.320Z,91894.66
2023-01-17T02:08:50.289Z,91890.84
2023-01-17T02:11:17.624Z,91878.81
2023-01-17T02:13:44.734Z,91883.44
2023-01-17T02:16:17.674Z,91869.09
2023-01-17T02:19:27.008Z,91863.28
2023-01-17T02:22:22.419Z,91844.00
2023-01-17T02:25:10.120Z,91839.28
2023-01-17T02:28:15.176Z,91837.97
2023-01-17T02:30:43.082Z,91839.63
2023-01-17T02:33:27.508Z,91835.56
2023-01-17T02:36:18.416Z,91829.94
2023-01-17T02:39:10.770Z,91817.41
2023-01-17T02:41:39.295Z,91811.59
2023-01-17T02:44:08.156Z,91803.50
2023-01-17T02:46:53.220Z,91801.28
2023-01-17T02:49:21.749Z,91789.75
2023-01-17T02:52:00.617Z,91797.47
2023-01-17T02:54:51.848Z,91787.22
2023-01-17T02:57:48.356Z,91778.75
2023-01-17T03:00:39.012Z,91772.50
2023-01-17T03:03:40.440Z,91762.59
2023-01-17T03:06:18.004Z,91764.69
2023-01-17T03:08:45.864Z,91755.41
2023-01-17T03:11:13.931Z,91751.31
2023-01-17T03:13:40.786Z,91746.06
2023-01-17T03:16:31.165Z,91738.69
2023-01-17T03:18:57.897Z,91738.66
2023-01-17T03:21:24.599Z,91731.38
2023-01-17T03:23:52.459Z,91729.59
2023-01-17T03:26:21.730Z,91722.97
2023-01-17T03:28:48.740Z,91720.97
2023-01-17T03:31:16.494Z,91710.63
2023-01-17T03:33:43.592Z,91706.75
2023-01-17T03:36:10.723Z,91700.41
2023-01-17T03:38:37.507Z,91694.19
2023-01-17T03:41:04.671Z,91688.66
2023-01-17T03:43:31.397Z,91685.41
2023-01-17T03:46:05.806Z,91681.31
2023-01-17T03:48:32.925Z,91670.16
2023-01-17T03:51:00.629Z,91662.38
2023-01-17T03:53:27.635Z,91655.34
2023-01-17T03:55:57.079Z,91655.50
2023-01-17T03:58:24.130Z,91654.34
2023-01-17T04:00:51.256Z,91655.03
2023-01-17T04:03:20.896Z,91661.16
2023-01-17T04:05:50.608Z,91656.25
2023-01-17T04:08:18.742Z,91640.78
2023-01-17T04:10:45.560Z,91643.56
2023-01-17T04:13:14.990Z,91639.00
2023-01-17T04:15:42.176Z,91642.81
2023-01-17T04:18:10.501Z,91641.84
2023-01-17T04:20:38.697Z,91648.94
2023-01-17T04:23:05.726Z,91640.81
2023-01-17T04:25:33.488Z,91638.88
2023-01-17T04:28:02.377Z,91636.66
2023-01-17T04:30:32.069Z,91635.34
2023-01-17T04:33:01.628Z,91641.00
2023-01-17T04:35:30.430Z,91633.53
2023-01-17T04:37:58.221Z,91630.88
2023-01-17T04:40:24.917Z,91631.28
2023-01-17T04:42:51.917Z,91623.84
2023-01-17T04:45:18.867Z,91626.97
2023-01-17T04:47:45.920Z,91614.13
2023-01-17T04:50:13.607Z,91598.22
2023-01-17T04:52:41.004Z,91589.22
2023-01-17T04:55:09.056Z,91581.75
2023-01-17T04:57:38.914Z,91576.03
2023-01-17T05:00:08.688Z,91570.47
2023-01-17T05:02:35.991Z,91569.91
2023-01-17T05:05:02.692Z,91574.31
2023-01-17T05:07:29.725Z,91574.16
2023-01-17T05:09:59.393Z,91573.22
2023-01-17T05:12:26.888Z,91567.97
2023-01-17T05:14:54.054Z,91570.91
2023-01-17T05:17:21.115Z,91562.59
2023-01-17T05:19:48.123Z,91566.00
2023-01-17T05:22:15.435Z,91560.94
2023-01-17T05:24:48.296Z,91562.03
2023-01-17T05:27:15.182Z,91561.38
2023-01-17T05:29:42.156Z,91559.41
2023-01-17T05:32:09.226Z,91558.34
2023-01-17T05:34:36.368Z,91553.50
2023-01-17T05:37:04.123Z,91541.19
2023-01-17T05:39:31.499Z,91536.72
2023-01-17T05:41:59.241Z,91531.41
2023-01-17T05:44:26.341Z,91517.00
2023-01-17T05:46:54.942Z,91512.47
2023-01-17T05:49:21.680Z,91509.09
2023-01-17T05:51:49.675Z,91500.88
2023-01-17T05:54:16.425Z,91502.22
2023-01-17T05:56:43.421Z,91509.09
2023-01-17T05:59:13.197Z,91518.00
2023-01-17T06:01:41.173Z,91511.56
2023-01-17T06:04:13.221Z,91507.72
2023-01-17T06:06:40.261Z,91511.44
2023-01-17T06:09:07.245Z,91510.25
2023-01-17T06:11:34.290Z,91507.13
2023-01-17T06:14:01.302Z,91500.38
2023-01-17T06:16:28.365Z,91495.16
2023-01-17T06:18:56.460Z,91500.38
2023-01-17T06:21:23.477Z,91492.75
2023-01-17T06:23:50.237Z,91499.16
2023-01-17T06:26:19.823Z,91490.72
2023-01-17T06:28:46.820Z,91486.59
2023-01-17T06:31:14.782Z,91482.75
2023-01-17T06:33:41.789Z,91482.16
2023-01-17T06:36:09.302Z,91479.66
2023-01-17T06:38:36.421Z,91481.25
2023-01-17T06:41:07.505Z,91479.03
2023-01-17T06:43:34.738Z,91477.28
2023-01-17T06:46:01.645Z,91472.47
2023-01-17T06:48:31.109Z,91462.72
2023-01-17T06:50:57.975Z,91451.31
2023-01-17T06:53:24.986Z,91455.66
2023-01-17T06:55:52.017Z,91451.31
2023-01-17T06:58:21.740Z,91454.19
2023-01-17T07:00:53.595Z,91452.97
2023-01-17T07:03:25.259Z,91452.16
2023-01-17T07:05:52.390Z,91449.41
2023-01-17T07:08:20.947Z,91444.09
2023-01-17T07:10:48.110Z,91448.66
2023-01-17T07:13:14.858Z,91441.88
2023-01-17T07:15:41.941Z,91437.84
2023-01-17T07:18:09.506Z,91428.50
2023-01-17T07:20:36.531Z,91421.38
2023-01-17T07:23:03.682Z,91413.66
2023-01-17T07:25:33.498Z,91415.97
2023-01-17T07:28:00.765Z,91407.19
2023-01-17T07:30:27.526Z,91396.19
2023-01-17T07:32:57.031Z,91390.75
2023-01-17T07:35:24.124Z,91423.28
2023-01-17T07:37:53.996Z,91426.78
2023-01-17T07:40:21.076Z,91419.34
2023-01-17T07:42:48.000Z,91416.91
2023-01-17T07:45:16.732Z,91417.16
2023-01-17T07:47:43.944Z,91414.91
2023-01-17T07:50:13.456Z,91414.34
2023-01-17T07:52:41.709Z,91416.84
2023-01-17T07:55:11.780Z,91412.31
2023-01-17T07:57:38.533Z,91418.66
2023-01-17T08:00:07.344Z,91420.44
2023-01-17T08:02:34.923Z,91418.94
2023-01-17T08:05:02.684Z,91422.91
2023-01-17T08:07:29.733Z,91420.66
2023-01-17T08:09:56.791Z,91415.75
2023-01-17T08:12:24.579Z,91421.81
2023-01-17T08:14:52.061Z,91423.22
2023-01-17T08:17:19.504Z,91414.59
2023-01-17T08:19:48.905Z,91414.38
2023-01-17T08:22:16.841Z,91418.69
2023-01-17T08:24:43.966Z,91415.13
2023-01-17T08:27:10.705Z,91416.38
2023-01-17T08:29:37.792Z,91417.94
2023-01-17T08:32:07.365Z,91404.34
2023-01-17T08:34:34.332Z,91401.31
2023-01-17T08:37:01.431Z,91398.06
2023-01-17T08:39:28.477Z,91396.47
2023-01-17T08:41:55.484Z,91398.00
2023-01-17T08:44:22.457Z,91388.78
2023-01-17T08:46:49.341Z,91388.97
2023-01-17T08:49:16.489Z,91384.19
2023-01-17T08:51:46.001Z,91383.84
2023-01-17T08:54:15.621Z,91381.41
2023-01-17T08:56:47.349Z,91385.84
2023-01-17T08:59:14.311Z,91387.38
2023-01-17T09:01:41.185Z,91377.56
2023-01-17T09:04:08.912Z,91381.31
2023-01-17T09:06:39.635Z,91362.00
2023-01-17T09:09:06.529Z,91366.84
2023-01-17T09:11:33.262Z,91362.00
2023-01-17T09:14:00.349Z,91354.63
2023-01-17T09:16:27.751Z,91347.56
2023-01-17T09:18:57.741Z,91348.03
2023-01-17T09:21:24.820Z,91341.00
2023-01-17T09:23:51.713Z,91341.19
2023-01-17T09:26:20.584Z,91352.06
2023-01-17T09:28:47.512Z,91352.28
2023-01-17T09:31:17.230Z,91348.78
2023-01-17T09:33:44.501Z,91350.53
2023-01-17T09:36:11.676Z,91346.63
2023-01-17T09:38:38.949Z,91352.31
2023-01-17T09:41:30.174Z,91355.53
2023-01-17T09:43:59.473Z,91363.59
2023-01-17T09:46:29.081Z,91352.25
2023-01-17T09:49:34.276Z,91346.16
2023-01-17T09:52:03.157Z,91338.97
2023-01-17T09:54:38.643Z,91328.91
2023-01-17T09:57:43.174Z,91326.91
2023-01-17T10:00:32.564Z,91325.38
2023-01-17T10:03:46.266Z,91329.44
2023-01-17T10:06:36.266Z,91316.16
2023-01-17T10:09:23.941Z,91312.38
2023-01-17T10:12:19.806Z,91312.34
2023-01-17T10:14:54.205Z,91307.56
2023-01-17T10:18:11.360Z,91309.84
2023-01-17T10:21:11.369Z,91303.06
2023-01-17T10:24:05.537Z,91301.28
2023-01-17T10:26:32.607Z,91299.03
2023-01-17T10:29:08.664Z,91299.50
2023-01-17T10:31:43.030Z,91293.03
2023-01-17T10:34:19.045Z,91293.53
2023-01-17T10:36:49.029Z,91291.78
2023-01-17T10:39:23.462Z,91281.41
2023-01-17T10:41:54.893Z,91281.88
2023-01-17T10:44:41.107Z,91278.09
2023-01-17T10:47:20.693Z,91270.56
2023-01-17T10:49:54.192Z,91263.09
2023-01-17T10:52:45.058Z,91278.22
2023-01-17T10:55:33.254Z,91272.56
2023-01-17T10:58:00.316Z,91266.69
2023-01-17T11:01:05.003Z,91264.09
2023-01-17T11:03:33.637Z,91259.34
2023-01-17T11:06:29.482Z,91270.16
2023-01-17T11:08:57.601Z,91259.22
2023-01-17T11:11:45.301Z,91259.59
2023-01-17T11:14:22.709Z,91255.09
2023-01-17T11:17:03.213Z,91255.28
2023-01-17T11:19:36.695Z,91250.69
2023-01-17T11:22:05.104Z,91247.25
2023-01-17T11:24:37.229Z,91253.50
2023-01-17T11:27:05.241Z,91245.53
2023-01-17T11:29:35.805Z,91247.50
2023-01-17T11:32:31.266Z,91245.91
2023-01-17T11:35:23.643Z,91242.53
2023-01-17T11:37:57.718Z,91241.97
2023-01-17T11:40:46.464Z,91241.34
2023-01-17T11:43:25.730Z,91244.97
2023-01-17T11:46:06.411Z,91246.22
2023-01-17T11:48:36.407Z,91247.19
2023-01-17T11:51:04.082Z,91234.84
2023-01-17T11:53:36.535Z,91233.44
2023-01-17T11:56:32.228Z,91234.19
2023-01-17T11:59:28.884Z,91229.50
2023-01-17T12:02:43.097Z,91237.53
2023-01-17T12:05:36.960Z,91253.03
2023-01-17T12:08:36.552Z,91254.91
2023-01-17T12:11:32.596Z,91247.78
2023-01-17T12:14:30.047Z,91250.47
2023-01-17T12:17:08.863Z,91256.88
2023-01-17T12:19:53.733Z,91255.59
2023-01-17T12:22:23.031Z,91248.56
2023-01-17T12:24:57.885Z,91238.25
2023-01-17T12:28:02.200Z,91239.25
2023-01-17T12:30:58.070Z,91234.97
2023-01-17T12:33:38.966Z,91236.25
2023-01-17T12:36:13.871Z,91241.25
2023-01-17T12:38:41.788Z,91235.97
2023-01-17T12:41:29.008Z,91235.28
2023-01-17T12:43:57.713Z,91217.03
2023-01-17T12:46:36.290Z,91214.56
2023-01-17T12:49:10.517Z,91227.22
2023-01-17T12:51:38.723Z,91227.94
2023-01-17T12:54:29.385Z,91230.63
2023-01-17T12:57:02.219Z,91227.44
2023-01-17T12:59:52.461Z,91236.59
2023-01-17T13:02:53.073Z,91237.59
2023-01-17T13:05:47.321Z,91236.16
2023-01-17T13:08:33.015Z,91235.00
2023-01-17T13:11:04.532Z,91241.53
2023-01-17T13:13:31.296Z,91246.38
2023-01-17T13:16:01.981Z,91257.09
2023-01-17T13:18:28.922Z,91258.41
2023-01-17T13:21:22.551Z,91256.25
2023-01-17T13:24:36.885Z,91248.25
2023-01-17T13:27:30.767Z,91248.13
2023-01-17T13:30:27.501Z,91241.22
2023-01-17T13:33:19.863Z,91270.06
2023-01-17T13:35:56.512Z,91280.19
2023-01-17T13:39:03.063Z,91283.50
2023-01-17T13:41:50.498Z,91285.56
2023-01-17T13:44:17.222Z,91292.59
2023-01-17T13:47:04.390Z,91290.53
2023-01-17T13:49:31.430Z,91300.06
2023-01-17T13:52:19.860Z,91309.81
2023-01-17T13:54:50.960Z,91298.19
2023-01-17T13:57:38.796Z,91306.59
2023-01-17T14:00:14.476Z,91310.22
2023-01-17T14:02:42.410Z,91298.13
2023-01-17T14:05:16.274Z,91295.44
2023-01-17T14:08:09.977Z,91292.75
2023-01-17T14:10:45.987Z,91271.41
2023-01-17T14:14:03.129Z,91284.47
2023-01-17T14:16:32.769Z,91291.25
2023-01-17T14:19:00.730Z,91298.97
2023-01-17T14:21:29.267Z,91301.69
2023-01-17T14:24:06.172Z,91296.50
2023-01-17T14:26:37.245Z,91307.25
2023-01-17T14:29:45.668Z,91312.09
2023-01-17T14:32:14.699Z,91317.38
2023-01-17T14:34:43.481Z,91318.63
2023-01-17T14:37:23.638Z,91320.66
2023-01-17T14:39:50.925Z,91316.38
2023-01-17T14:42:19.748Z,91306.06
2023-01-17T14:44:48.369Z,91308.06
2023-01-17T14:47:17.852Z,91302.03
2023-01-17T14:49:45.030Z,91295.00
2023-01-17T14:52:16.989Z,91297.28
2023-01-17T14:55:18.743Z,91292.97
2023-01-17T14:58:00.034Z,91296.78
2023-01-17T15:00:42.969Z,91286.44
2023-01-17T15:03:11.586Z,91291.94
2023-01-17T15:05:40.444Z,91288.19
2023-01-17T15:08:13.292Z,91284.22
2023-01-17T15:10:48.624Z,91307.56
2023-01-17T15:13:16.516Z,91299.44
2023-01-17T15:15:44.477Z,91315.63
2023-01-17T15:18:14.136Z,91323.13
2023-01-17T15:20:54.906Z,91316.09
2023-01-17T15:23:25.371Z,91320.81
2023-01-17T15:25:52.895Z,91326.09
2023-01-17T15:28:20.907Z,91327.31
2023-01-17T15:31:37.053Z,91326.53
2023-01-17T15:34:06.309Z,91334.63
2023-01-17T15:36:52.876Z,91340.19
2023-01-17T15:39:24.124Z,91356.34
2023-01-17T15:41:52.097Z,91350.78
2023-01-17T15:44:46.831Z,91353.81
2023-01-17T15:47:35.404Z,91355.34
2023-01-17T15:50:03.619Z,91361.88
2023-01-17T15:52:30.821Z,91348.78
2023-01-17T15:55:11.966Z,91354.81
2023-01-17T15:57:44.867Z,91353.28
2023-01-17T16:00:15.462Z,91356.75
2023-01-17T16:03:34.280Z,91353.63
2023-01-17T16:06:01.061Z,91357.22
2023-01-17T16:08:38.710Z,91356.94
2023-01-17T16:11:07.649Z,91359.31
2023-01-17T16:13:40.240Z,91354.31
2023-01-17T16:16:22.388Z,91364.09
2023-01-17T16:19:08.243Z,91357.53
2023-01-17T16:21:35.546Z,91365.06
2023-01-17T16:24:02.770Z,91362.91
2023-01-17T16:26:29.847Z,91376.56
2023-01-17T16:28:56.544Z,91368.81
2023-01-17T16:31:23.513Z,91366.16
2023-01-17T16:33:52.116Z,91361.53
2023-01-17T16:36:18.857Z,91379.03
2023-01-17T16:38:48.971Z,91378.31
2023-01-17T16:41:48.870Z,91371.38
2023-01-17T16:44:15.865Z,91368.34
2023-01-17T16:46:43.256Z,91372.66
2023-01-17T16:49:10.051Z,91357.84
2023-01-17T16:51:37.829Z,91355.78
2023-01-17T16:54:04.889Z,91357.84
2023-01-17T16:56:32.122Z,91356.59
2023-01-17T16:58:59.206Z,91359.81
2023-01-17T17:01:26.336Z,91350.81
2023-01-17T17:03:53.430Z,91356.34
2023-01-17T17:06:21.442Z,91355.31
2023-01-17T17:08:48.577Z,91352.31
2023-01-17T17:11:18.177Z,91344.16
2023-01-17T17:13:45.732Z,91355.81
2023-01-17T17:16:20.347Z,91353.34
2023-01-17T17:18:53.525Z,91358.53
2023-01-17T17:21:20.378Z,91357.34
2023-01-17T17:23:47.349Z,91365.53
2023-01-17T17:26:14.407Z,91368.63
2023-01-17T17:28:41.448Z,91379.13
2023-01-17T17:31:08.981Z,91374.16
2023-01-17T17:33:38.832Z,91375.91
2023-01-17T17:36:07.362Z,91391.28
2023-01-17T17:38:34.085Z,91399.06
2023-01-17T17:41:05.438Z,91405.59
2023-01-17T17:43:38.501Z,91410.41
2023-01-17T17:46:05.264Z,91396.66
2023-01-17T17:48:31.952Z,91403.97
2023-01-17T17:50:59.809Z,91405.03
2023-01-17T17:53:29.434Z,91413.13
2023-01-17T17:55:58.380Z,91416.66
2023-01-17T17:58:25.517Z,91428.00
2023-01-17T18:00:54.539Z,91414.09
2023-01-17T18:03:21.625Z,91426.97
2023-01-17T18:05:48.367Z,91431.75
2023-01-17T18:08:15.385Z,91432.44
2023-01-17T18:10:42.817Z,91429.06
2023-01-17T18:13:10.893Z,91439.16
2023-01-17T18:15:37.795Z,91448.31
2023-01-17T18:18:05.810Z,91458.31
2023-01-17T18:20:35.353Z,91455.34
2023-01-17T18:23:02.253Z,91462.63
2023-01-17T18:25:28.948Z,91462.69
2023-01-17T18:27:58.137Z,91460.44
2023-01-17T18:30:25.260Z,91456.91
2023-01-17T18:32:52.308Z,91450.38
2023-01-17T18:35:19.380Z,91450.34
2023-01-17T18:37:46.067Z,91455.41
2023-01-17T18:40:17.275Z,91460.19
2023-01-17T18:42:44.341Z,91455.00
2023-01-17T18:45:12.268Z,91462.69
2023-01-17T18:47:40.130Z,91464.50
2023-01-17T18:50:07.438Z,91465.97
2023-01-17T18:52:35.384Z,91470.31
2023-01-17T18:55:02.552Z,91465.56
2023-01-17T18:57:29.484Z,91471.09
2023-01-17T18:59:56.567Z,91470.94
2023-01-17T19:02:23.425Z,91469.72
2023-01-17T19:04:51.141Z,91466.41
2023-01-17T19:07:23.995Z,91457.13
2023-01-17T19:09:50.709Z,91458.84
2023-01-17T19:12:19.040Z,91461.41
2023-01-17T19:14:47.401Z,91460.94
2023-01-17T19:17:14.562Z,91446.19
2023-01-17T19:20:02.912Z,91455.22
2023-01-17T19:22:50.102Z,91459.00
2023-01-17T19:25:17.152Z,91460.53
2023-01-17T19:27:43.968Z,91455.84
2023-01-17T19:30:12.370Z,91461.13
2023-01-17T19:32:39.450Z,91455.31
2023-01-17T19:35:06.489Z,91466.09
2023-01-17T19:39:12.708Z,91465.72
2023-01-17T19:40:45.645Z,91466.19
2023-01-17T19:43:25.383Z,91470.84
2023-01-17T19:45:58.535Z,91471.81
2023-01-17T19:48:26.238Z,91473.28
2023-01-17T19:51:21.001Z,91475.53
2023-01-17T19:53:49.010Z,91477.06
2023-01-17T19:56:19.987Z,91481.00
2023-01-17T19:58:47.397Z,91472.03
2023-01-17T20:01:32.175Z,91475.97
2023-01-17T20:04:01.422Z,91472.75
2023-01-17T20:06:30.282Z,91477.72
2023-01-17T20:08:57.247Z,91479.13
2023-01-17T20:11:27.473Z,91477.00
2023-01-17T20:13:55.468Z,91485.69
2023-01-17T20:16:26.121Z,91484.41
2023-01-17T20:18:53.528Z,91498.47
2023-01-17T20:21:25.273Z,91494.06
2023-01-17T20:23:53.327Z,91493.31
2023-01-17T20:26:24.484Z,91497.34
2023-01-17T20:28:51.935Z,91501.31
2023-01-17T20:31:23.171Z,91488.25
2023-01-17T20:33:51.203Z,91497.53
2023-01-17T20:36:18.709Z,91494.00
2023-01-17T20:38:45.478Z,91504.38
2023-01-17T20:41:38.859Z,91496.63
2023-01-17T20:44:07.035Z,91505.22
2023-01-17T20:46:35.835Z,91512.25
2023-01-17T20:49:07.299Z,91504.97
2023-01-17T20:51:34.387Z,91506.97
2023-01-17T20:54:02.498Z,91501.66
2023-01-17T20:56:29.526Z,91503.44
2023-01-17T20:58:57.443Z,91500.34
2023-01-17T21:01:25.221Z,91500.06
2023-01-17T21:03:52.142Z,91508.72
2023-01-17T21:06:20.264Z,91504.69
2023-01-17T21:08:50.436Z,91516.72
2023-01-17T21:11:19.237Z,91517.34
2023-01-17T21:13:46.061Z,91515.72
2023-01-17T21:16:14.515Z,91516.38
2023-01-17T21:18:41.422Z,91509.50
2023-01-17T21:21:10.630Z,91513.69
2023-01-17T21:23:38.164Z,91525.97
2023-01-17T21:26:05.829Z,91535.09
2023-01-17T21:28:39.529Z,91538.09
2023-01-17T21:31:13.215Z,91553.72
2023-01-17T21:33:40.028Z,91563.88
2023-01-17T21:36:08.266Z,91567.69
2023-01-17T21:38:37.938Z,91578.72
2023-01-17T21:41:06.531Z,91580.47
2023-01-17T21:43:33.203Z,91578.00
2023-01-17T21:46:04.153Z,91580.38
2023-01-17T21:48:31.010Z,91580.75
2023-01-17T21:51:03.908Z,91587.75
2023-01-17T21:53:30.808Z,91595.97
2023-01-17T21:56:03.156Z,91589.47
2023-01-17T21:58:39.928Z,91595.09
2023-01-17T22:01:12.943Z,91600.19
2023-01-17T22:03:42.620Z,91597.03
2023-01-17T22:06:10.329Z,91599.84
2023-01-17T22:08:47.104Z,91606.56
2023-01-17T22:11:18.495Z,91610.34
2023-01-17T22:13:45.314Z,91608.69
2023-01-17T22:16:15.429Z,91608.81
2023-01-17T22:18:45.561Z,91610.88
2023-01-17T22:21:20.456Z,91607.63
2023-01-17T22:23:48.378Z,91616.47
2023-01-17T22:26:15.848Z,91621.47
2023-01-17T22:28:42.553Z,91617.44
2023-01-17T22:31:13.526Z,91617.66
2023-01-17T22:33:41.843Z,91630.25
2023-01-17T22:36:09.285Z,91633.66
2023-01-17T22:38:36.124Z,91640.38
2023-01-17T22:41:11.789Z,91631.00
2023-01-17T22:43:51.653Z,91627.91
2023-01-17T22:46:20.483Z,91634.31
2023-01-17T22:48:48.446Z,91641.16
2023-01-17T22:51:16.130Z,91639.66
2023-01-17T22:53:47.157Z,91644.38
2023-01-17T22:56:20.840Z,91638.88
2023-01-17T22:58:49.200Z,91628.78
2023-01-17T23:01:33.154Z,91633.56
2023-01-17T23:04:04.609Z,91633.84
2023-01-17T23:06:51.275Z,91628.56
2023-01-17T23:09:18.269Z,91633.84
2023-01-17T23:11:49.331Z,91627.81
2023-01-17T23:14:17.069Z,91632.53
2023-01-17T23:16:49.852Z,91630.31
2023-01-17T23:19:19.880Z,91627.56
2023-01-17T23:21:46.915Z,91627.78
2023-01-17T23:24:13.988Z,91627.75
2023-01-17T23:26:41.916Z,91628.53
2023-01-17T23:29:09.751Z,91632.53
2023-01-17T23:31:36.779Z,91632.41
2023-01-17T23:34:03.651Z,91634.78
2023-01-17T23:36:30.349Z,91635.78
2023-01-17T23:38:57.084Z,91641.00
2023-01-17T23:41:23.933Z,91642.81
2023-01-17T23:43:54.516Z,91641.09
2023-01-17T23:46:21.337Z,91651.34
2023-01-17T23:48:48.076Z,91653.34
2023-01-17T23:51:14.800Z,91652.31
2023-01-17T23:53:42.363Z,91658.06
2023-01-17T23:56:23.620Z,91661.47
2023-01-17T23:58:51.507Z,91672.78
